sensor_id;sensor_type;location;lat;lon;timestamp;pressure;altitude;pressure_sealevel;temperature;humidity
10079;BME280;5078;42.544;22.966;2023-10-09T00:01:01;94396.75;;;17.21;74.36
10079;BME280;5078;42.544;22.966;2023-10-09T00:03:29;94403.97;;;17.27;74.44
10079;BME280;5078;42.544;22.966;2023-10-09T00:05:57;94399.78;;;17.04;75.28
10079;BME280;5078;42.544;22.966;2023-10-09T00:08:24;94408.44;;;16.93;77.69
10079;BME280;5078;42.544;22.966;2023-10-09T00:10:58;94414.25;;;17.10;76.95
10079;BME280;5078;42.544;22.966;2023-10-09T00:13:39;94402.19;;;16.79;78.17
10079;BME280;5078;42.544;22.966;2023-10-09T00:16:14;94415.56;;;16.79;79.49
10079;BME280;5078;42.544;22.966;2023-10-09T00:18:49;94422.91;;;16.57;82.64
10079;BME280;5078;42.544;22.966;2023-10-09T00:21:16;94425.47;;;16.44;84.69
10079;BME280;5078;42.544;22.966;2023-10-09T00:23:45;94420.03;;;16.66;83.70
10079;BME280;5078;42.544;22.966;2023-10-09T00:26:19;94417.00;;;16.75;82.35
10079;BME280;5078;42.544;22.966;2023-10-09T00:28:46;94418.66;;;16.35;86.37
10079;BME280;5078;42.544;22.966;2023-10-09T00:31:13;94415.78;;;16.36;86.31
10079;BME280;5078;42.544;22.966;2023-10-09T00:33:41;94420.94;;;16.03;89.66
10079;BME280;5078;42.544;22.966;2023-10-09T00:36:08;94421.25;;;15.93;92.36
10079;BME280;5078;42.544;22.966;2023-10-09T00:38:35;94425.47;;;16.03;91.69
10079;BME280;5078;42.544;22.966;2023-10-09T00:41:04;94418.66;;;16.00;91.01
10079;BME280;5078;42.544;22.966;2023-10-09T00:43:38;94422.28;;;15.92;91.64
10079;BME280;5078;42.544;22.966;2023-10-09T00:46:08;94414.47;;;15.91;91.17
10079;BME280;5078;42.544;22.966;2023-10-09T00:48:50;94418.00;;;15.98;90.63
10079;BME280;5078;42.544;22.966;2023-10-09T00:51:18;94420.13;;;16.09;90.40
10079;BME280;5078;42.544;22.966;2023-10-09T00:53:48;94416.53;;;16.24;87.87
10079;BME280;5078;42.544;22.966;2023-10-09T00:56:17;94421.94;;;16.37;87.20
10079;BME280;5078;42.544;22.966;2023-10-09T00:58:57;94412.81;;;16.25;86.74
10079;BME280;5078;42.544;22.966;2023-10-09T01:01:34;94421.59;;;16.12;88.39
10079;BME280;5078;42.544;22.966;2023-10-09T01:04:02;94421.56;;;16.05;87.70
10079;BME280;5078;42.544;22.966;2023-10-09T01:06:42;94416.34;;;15.97;88.43
10079;BME280;5078;42.544;22.966;2023-10-09T01:09:11;94427.50;;;16.01;88.81
10079;BME280;5078;42.544;22.966;2023-10-09T01:11:39;94435.47;;;15.94;88.64
10079;BME280;5078;42.544;22.966;2023-10-09T01:14:24;94443.22;;;15.67;90.95
10079;BME280;5078;42.544;22.966;2023-10-09T01:16:51;94448.69;;;15.74;89.60
10079;BME280;5078;42.544;22.966;2023-10-09T01:19:20;94432.03;;;15.57;89.98
10079;BME280;5078;42.544;22.966;2023-10-09T01:21:49;94438.91;;;15.45;91.50
10079;BME280;5078;42.544;22.966;2023-10-09T01:24:18;94439.53;;;15.04;94.21
10079;BME280;5078;42.544;22.966;2023-10-09T01:26:46;94444.97;;;15.10;94.49
10079;BME280;5078;42.544;22.966;2023-10-09T01:29:16;94444.16;;;15.31;93.35
10079;BME280;5078;42.544;22.966;2023-10-09T01:31:45;94437.22;;;15.16;94.70
10079;BME280;5078;42.544;22.966;2023-10-09T01:34:18;94444.88;;;15.04;96.48
10079;BME280;5078;42.544;22.966;2023-10-09T01:36:52;94437.81;;;14.96;98.20
10079;BME280;5078;42.544;22.966;2023-10-09T01:39:23;94446.94;;;15.23;94.58
10079;BME280;5078;42.544;22.966;2023-10-09T01:41:54;94439.56;;;15.25;92.95
10079;BME280;5078;42.544;22.966;2023-10-09T01:44:32;94465.59;;;15.38;90.99
10079;BME280;5078;42.544;22.966;2023-10-09T01:47:01;94473.53;;;15.31;91.79
10079;BME280;5078;42.544;22.966;2023-10-09T01:49:33;94471.84;;;15.09;92.41
10079;BME280;5078;42.544;22.966;2023-10-09T01:52:01;94472.66;;;14.73;96.63
10079;BME280;5078;42.544;22.966;2023-10-09T01:54:35;94469.88;;;14.81;97.31
10079;BME280;5078;42.544;22.966;2023-10-09T01:57:03;94464.72;;;14.80;95.92
10079;BME280;5078;42.544;22.966;2023-10-09T01:59:36;94466.16;;;14.61;95.81
10079;BME280;5078;42.544;22.966;2023-10-09T02:02:08;94450.50;;;14.43;97.37
10079;BME280;5078;42.544;22.966;2023-10-09T02:04:41;94461.88;;;14.52;97.50
10079;BME280;5078;42.544;22.966;2023-10-09T02:07:08;94486.66;;;14.75;94.38
10079;BME280;5078;42.544;22.966;2023-10-09T02:09:36;94503.84;;;14.87;92.37
10079;BME280;5078;42.544;22.966;2023-10-09T02:12:11;94495.81;;;14.87;91.21
10079;BME280;5078;42.544;22.966;2023-10-09T02:14:38;94498.06;;;14.84;91.56
10079;BME280;5078;42.544;22.966;2023-10-09T02:17:07;94496.47;;;14.89;91.17
10079;BME280;5078;42.544;22.966;2023-10-09T02:19:43;94495.41;;;14.54;93.93
10079;BME280;5078;42.544;22.966;2023-10-09T02:22:13;94505.53;;;14.74;92.82
10079;BME280;5078;42.544;22.966;2023-10-09T02:24:44;94505.78;;;14.49;94.28
10079;BME280;5078;42.544;22.966;2023-10-09T02:27:23;94490.53;;;14.05;95.04
10079;BME280;5078;42.544;22.966;2023-10-09T02:30:04;94483.31;;;14.14;93.32
10079;BME280;5078;42.544;22.966;2023-10-09T02:32:43;94488.84;;;14.42;89.56
10079;BME280;5078;42.544;22.966;2023-10-09T02:35:14;94509.53;;;14.40;89.15
10079;BME280;5078;42.544;22.966;2023-10-09T02:38:02;94521.94;;;14.18;89.15
10079;BME280;5078;42.544;22.966;2023-10-09T02:40:33;94514.78;;;14.33;86.73
10079;BME280;5078;42.544;22.966;2023-10-09T02:43:07;94528.13;;;14.33;88.42
10079;BME280;5078;42.544;22.966;2023-10-09T02:45:37;94528.16;;;14.48;86.10
10079;BME280;5078;42.544;22.966;2023-10-09T02:48:16;94513.09;;;14.17;86.18
10079;BME280;5078;42.544;22.966;2023-10-09T02:50:45;94512.16;;;13.95;89.50
10079;BME280;5078;42.544;22.966;2023-10-09T02:53:12;94520.75;;;14.20;88.56
10079;BME280;5078;42.544;22.966;2023-10-09T02:55:45;94533.75;;;14.38;85.87
10079;BME280;5078;42.544;22.966;2023-10-09T02:58:33;94532.97;;;14.30;84.46
10079;BME280;5078;42.544;22.966;2023-10-09T03:01:02;94533.53;;;14.25;84.86
10079;BME280;5078;42.544;22.966;2023-10-09T03:03:29;94535.69;;;14.07;87.78
10079;BME280;5078;42.544;22.966;2023-10-09T03:05:55;94536.38;;;14.23;85.10
10079;BME280;5078;42.544;22.966;2023-10-09T03:08:22;94543.44;;;14.16;82.70
10079;BME280;5078;42.544;22.966;2023-10-09T03:10:50;94542.69;;;14.08;84.24
10079;BME280;5078;42.544;22.966;2023-10-09T03:13:17;94527.75;;;13.84;85.64
10079;BME280;5078;42.544;22.966;2023-10-09T03:15:45;94523.34;;;13.45;89.10
10079;BME280;5078;42.544;22.966;2023-10-09T03:18:13;94521.19;;;13.48;90.63
10079;BME280;5078;42.544;22.966;2023-10-09T03:20:40;94522.59;;;13.36;91.06
10079;BME280;5078;42.544;22.966;2023-10-09T03:23:10;94535.91;;;13.36;92.07
10079;BME280;5078;42.544;22.966;2023-10-09T03:25:39;94533.97;;;13.22;91.52
10079;BME280;5078;42.544;22.966;2023-10-09T03:28:12;94547.19;;;13.07;92.19
10079;BME280;5078;42.544;22.966;2023-10-09T03:30:40;94560.75;;;13.28;91.49
10079;BME280;5078;42.544;22.966;2023-10-09T03:33:10;94569.06;;;13.56;88.37
10079;BME280;5078;42.544;22.966;2023-10-09T03:35:38;94570.50;;;13.67;85.54
10079;BME280;5078;42.544;22.966;2023-10-09T03:38:05;94560.44;;;13.54;87.45
10079;BME280;5078;42.544;22.966;2023-10-09T03:40:41;94553.16;;;13.09;88.05
10079;BME280;5078;42.544;22.966;2023-10-09T03:43:08;94541.69;;;13.08;89.28
10079;BME280;5078;42.544;22.966;2023-10-09T03:45:37;94537.66;;;13.12;89.06
10079;BME280;5078;42.544;22.966;2023-10-09T03:48:09;94546.44;;;12.90;91.05
10079;BME280;5078;42.544;22.966;2023-10-09T03:50:41;94565.25;;;13.28;89.46
10079;BME280;5078;42.544;22.966;2023-10-09T03:53:09;94576.16;;;13.02;89.55
10079;BME280;5078;42.544;22.966;2023-10-09T03:55:38;94585.78;;;13.11;91.24
10079;BME280;5078;42.544;22.966;2023-10-09T03:58:05;94580.94;;;13.14;89.83
10079;BME280;5078;42.544;22.966;2023-10-09T04:00:32;94563.31;;;13.13;91.15
10079;BME280;5078;42.544;22.966;2023-10-09T04:03:11;94577.22;;;13.24;91.82
10079;BME280;5078;42.544;22.966;2023-10-09T04:05:40;94562.28;;;13.14;91.48
10079;BME280;5078;42.544;22.966;2023-10-09T04:08:08;94569.00;;;13.02;93.99
10079;BME280;5078;42.544;22.966;2023-10-09T04:10:38;94575.44;;;12.77;95.47
10079;BME280;5078;42.544;22.966;2023-10-09T04:13:17;94578.13;;;12.60;97.26
10079;BME280;5078;42.544;22.966;2023-10-09T04:15:49;94581.53;;;12.93;95.14
10079;BME280;5078;42.544;22.966;2023-10-09T04:18:19;94578.69;;;12.95;94.35
10079;BME280;5078;42.544;22.966;2023-10-09T04:20:54;94581.53;;;12.93;94.03
10079;BME280;5078;42.544;22.966;2023-10-09T04:23:39;94580.75;;;12.77;94.31
10079;BME280;5078;42.544;22.966;2023-10-09T04:26:19;94589.44;;;12.70;94.12
10079;BME280;5078;42.544;22.966;2023-10-09T04:28:46;94579.78;;;12.69;95.70
10079;BME280;5078;42.544;22.966;2023-10-09T04:31:16;94589.22;;;12.80;95.91
10079;BME280;5078;42.544;22.966;2023-10-09T04:33:46;94566.22;;;12.40;97.10
10079;BME280;5078;42.544;22.966;2023-10-09T04:36:19;94597.13;;;12.41;100.00
10079;BME280;5078;42.544;22.966;2023-10-09T04:38:49;94597.94;;;12.49;98.41
10079;BME280;5078;42.544;22.966;2023-10-09T04:42:00;94596.91;;;12.67;95.23
10079;BME280;5078;42.544;22.966;2023-10-09T04:44:41;94595.75;;;12.61;94.80
10079;BME280;5078;42.544;22.966;2023-10-09T04:47:25;94593.78;;;12.47;97.14
10079;BME280;5078;42.544;22.966;2023-10-09T04:50:02;94610.41;;;12.49;98.42
10079;BME280;5078;42.544;22.966;2023-10-09T04:52:33;94612.25;;;12.48;99.49
10079;BME280;5078;42.544;22.966;2023-10-09T04:55:18;94602.56;;;12.64;93.73
10079;BME280;5078;42.544;22.966;2023-10-09T04:57:50;94602.41;;;12.57;94.18
10079;BME280;5078;42.544;22.966;2023-10-09T05:00:28;94611.22;;;12.58;94.43
10079;BME280;5078;42.544;22.966;2023-10-09T05:03:12;94615.91;;;12.56;93.84
10079;BME280;5078;42.544;22.966;2023-10-09T05:05:51;94612.91;;;12.42;95.85
10079;BME280;5078;42.544;22.966;2023-10-09T05:08:25;94610.63;;;12.31;98.10
10079;BME280;5078;42.544;22.966;2023-10-09T05:10:56;94610.44;;;12.33;98.26
10079;BME280;5078;42.544;22.966;2023-10-09T05:13:41;94612.44;;;12.30;95.91
10079;BME280;5078;42.544;22.966;2023-10-09T05:16:23;94615.44;;;12.36;94.18
10079;BME280;5078;42.544;22.966;2023-10-09T05:18:51;94617.41;;;12.34;92.17
10079;BME280;5078;42.544;22.966;2023-10-09T05:21:24;94621.41;;;12.29;91.25
10079;BME280;5078;42.544;22.966;2023-10-09T05:24:03;94619.41;;;12.32;91.99
10079;BME280;5078;42.544;22.966;2023-10-09T05:26:46;94616.03;;;12.62;90.09
10079;BME280;5078;42.544;22.966;2023-10-09T05:29:18;94616.78;;;12.95;86.54
10079;BME280;5078;42.544;22.966;2023-10-09T05:32:00;94620.19;;;13.29;83.79
10079;BME280;5078;42.544;22.966;2023-10-09T05:34:31;94621.34;;;13.57;80.09
10079;BME280;5078;42.544;22.966;2023-10-09T05:37:02;94620.75;;;13.78;77.37
10079;BME280;5078;42.544;22.966;2023-10-09T05:39:43;94633.56;;;13.75;74.87
10079;BME280;5078;42.544;22.966;2023-10-09T05:42:23;94646.00;;;13.82;74.33
10079;BME280;5078;42.544;22.966;2023-10-09T05:44:54;94651.13;;;13.92;74.59
10079;BME280;5078;42.544;22.966;2023-10-09T05:47:37;94652.56;;;14.03;72.92
10079;BME280;5078;42.544;22.966;2023-10-09T05:50:13;94651.78;;;14.17;71.32
10079;BME280;5078;42.544;22.966;2023-10-09T05:52:59;94655.41;;;14.85;67.36
10079;BME280;5078;42.544;22.966;2023-10-09T05:55:33;94659.56;;;15.03;65.58
10079;BME280;5078;42.544;22.966;2023-10-09T05:58:34;94661.31;;;15.10;62.87
10079;BME280;5078;42.544;22.966;2023-10-09T06:01:18;94670.81;;;15.43;63.04
10079;BME280;5078;42.544;22.966;2023-10-09T06:04:03;94674.69;;;15.91;58.69
10079;BME280;5078;42.544;22.966;2023-10-09T06:06:40;94684.63;;;16.34;56.15
10079;BME280;5078;42.544;22.966;2023-10-09T06:09:12;94683.59;;;16.56;53.85
10079;BME280;5078;42.544;22.966;2023-10-09T06:11:56;94696.47;;;16.46;54.19
10079;BME280;5078;42.544;22.966;2023-10-09T06:14:47;94688.13;;;16.56;51.88
10079;BME280;5078;42.544;22.966;2023-10-09T06:17:23;94690.97;;;16.54;53.28
10079;BME280;5078;42.544;22.966;2023-10-09T06:19:52;94707.03;;;16.54;51.76
10079;BME280;5078;42.544;22.966;2023-10-09T06:22:24;94698.53;;;17.15;49.20
10079;BME280;5078;42.544;22.966;2023-10-09T06:25:09;94702.66;;;17.18;48.41
10079;BME280;5078;42.544;22.966;2023-10-09T06:27:37;94707.72;;;17.06;46.92
10079;BME280;5078;42.544;22.966;2023-10-09T06:30:23;94713.00;;;16.93;48.08
10079;BME280;5078;42.544;22.966;2023-10-09T06:32:52;94706.50;;;17.09;47.06
10079;BME280;5078;42.544;22.966;2023-10-09T06:35:23;94708.44;;;17.15;44.90
10079;BME280;5078;42.544;22.966;2023-10-09T06:37:56;94710.25;;;17.14;46.37
10079;BME280;5078;42.544;22.966;2023-10-09T06:40:49;94715.91;;;17.26;46.68
10079;BME280;5078;42.544;22.966;2023-10-09T06:43:33;94698.41;;;17.65;45.40
10079;BME280;5078;42.544;22.966;2023-10-09T06:46:14;94715.13;;;18.08;44.70
10079;BME280;5078;42.544;22.966;2023-10-09T06:48:59;94706.69;;;17.77;44.30
10079;BME280;5078;42.544;22.966;2023-10-09T06:51:40;94707.56;;;17.77;45.07
10079;BME280;5078;42.544;22.966;2023-10-09T06:54:07;94715.84;;;18.37;43.54
10079;BME280;5078;42.544;22.966;2023-10-09T06:56:52;94720.94;;;18.19;43.53
10079;BME280;5078;42.544;22.966;2023-10-09T06:59:41;94711.97;;;18.66;41.83
10079;BME280;5078;42.544;22.966;2023-10-09T07:02:28;94714.28;;;17.95;42.46
10079;BME280;5078;42.544;22.966;2023-10-09T07:04:56;94724.25;;;18.21;43.14
10079;BME280;5078;42.544;22.966;2023-10-09T07:07:36;94725.16;;;17.86;42.15
10079;BME280;5078;42.544;22.966;2023-10-09T07:10:13;94721.72;;;18.06;42.46
10079;BME280;5078;42.544;22.966;2023-10-09T07:13:06;94729.16;;;18.04;41.13
10079;BME280;5078;42.544;22.966;2023-10-09T07:15:33;94710.66;;;18.22;41.22
10079;BME280;5078;42.544;22.966;2023-10-09T07:18:17;94726.91;;;18.14;39.77
10079;BME280;5078;42.544;22.966;2023-10-09T07:20:49;94718.81;;;18.01;40.02
10079;BME280;5078;42.544;22.966;2023-10-09T07:23:27;94713.13;;;18.30;40.42
10079;BME280;5078;42.544;22.966;2023-10-09T07:26:02;94715.31;;;18.82;39.20
10079;BME280;5078;42.544;22.966;2023-10-09T07:28:45;94710.34;;;18.79;39.00
10079;BME280;5078;42.544;22.966;2023-10-09T07:31:18;94716.16;;;19.42;37.72
10079;BME280;5078;42.544;22.966;2023-10-09T07:33:52;94704.88;;;18.39;38.40
10079;BME280;5078;42.544;22.966;2023-10-09T07:36:23;94699.38;;;18.60;37.26
10079;BME280;5078;42.544;22.966;2023-10-09T07:39:00;94688.47;;;18.95;36.26
10079;BME280;5078;42.544;22.966;2023-10-09T07:41:33;94702.84;;;18.47;37.70
10079;BME280;5078;42.544;22.966;2023-10-09T07:44:05;94697.53;;;19.21;37.02
10079;BME280;5078;42.544;22.966;2023-10-09T07:47:00;94699.91;;;18.29;38.19
10079;BME280;5078;42.544;22.966;2023-10-09T07:49:43;94701.63;;;18.63;37.39
10079;BME280;5078;42.544;22.966;2023-10-09T07:52:14;94706.63;;;19.39;35.98
10079;BME280;5078;42.544;22.966;2023-10-09T07:54:42;94706.00;;;19.04;35.62
10079;BME280;5078;42.544;22.966;2023-10-09T07:57:16;94699.78;;;19.57;35.63
10079;BME280;5078;42.544;22.966;2023-10-09T07:59:44;94703.91;;;19.59;35.82
10079;BME280;5078;42.544;22.966;2023-10-09T08:02:27;94705.53;;;19.74;34.18
10079;BME280;5078;42.544;22.966;2023-10-09T08:04:59;94705.81;;;20.04;34.41
10079;BME280;5078;42.544;22.966;2023-10-09T08:07:32;94701.66;;;19.36;34.82
10079;BME280;5078;42.544;22.966;2023-10-09T08:10:02;94698.31;;;18.61;35.89
10079;BME280;5078;42.544;22.966;2023-10-09T08:12:46;94710.31;;;19.58;34.16
10079;BME280;5078;42.544;22.966;2023-10-09T08:15:46;94700.78;;;19.63;33.52
10079;BME280;5078;42.544;22.966;2023-10-09T08:18:18;94706.72;;;19.91;32.59
10079;BME280;5078;42.544;22.966;2023-10-09T08:20:53;94700.97;;;20.26;31.93
10079;BME280;5078;42.544;22.966;2023-10-09T08:23:34;94697.63;;;20.31;32.31
10079;BME280;5078;42.544;22.966;2023-10-09T08:26:14;94693.88;;;20.32;32.41
10079;BME280;5078;42.544;22.966;2023-10-09T08:28:54;94691.34;;;20.43;32.04
10079;BME280;5078;42.544;22.966;2023-10-09T08:31:42;94686.16;;;20.10;30.93
10079;BME280;5078;42.544;22.966;2023-10-09T08:34:12;94678.81;;;20.24;31.32
10079;BME280;5078;42.544;22.966;2023-10-09T08:36:50;94672.66;;;20.17;31.29
10079;BME280;5078;42.544;22.966;2023-10-09T08:39:19;94667.63;;;20.27;31.36
10079;BME280;5078;42.544;22.966;2023-10-09T08:41:50;94664.06;;;20.97;30.92
10079;BME280;5078;42.544;22.966;2023-10-09T08:44:19;94665.69;;;20.73;30.94
10079;BME280;5078;42.544;22.966;2023-10-09T08:46:49;94663.88;;;21.17;29.67
10079;BME280;5078;42.544;22.966;2023-10-09T08:49:16;94657.75;;;21.53;29.38
10079;BME280;5078;42.544;22.966;2023-10-09T08:51:44;94660.31;;;20.73;28.99
10079;BME280;5078;42.544;22.966;2023-10-09T08:54:12;94653.25;;;20.72;29.55
10079;BME280;5078;42.544;22.966;2023-10-09T08:56:40;94646.44;;;21.63;28.24
10079;BME280;5078;42.544;22.966;2023-10-09T08:59:15;94645.38;;;21.82;28.23
10079;BME280;5078;42.544;22.966;2023-10-09T09:01:43;94644.63;;;21.75;28.58
10079;BME280;5078;42.544;22.966;2023-10-09T09:07:22;94638.84;;;21.53;26.82
10079;BME280;5078;42.544;22.966;2023-10-09T09:09:54;94636.22;;;21.21;28.13
10079;BME280;5078;42.544;22.966;2023-10-09T09:12:22;94635.31;;;22.38;26.70
10079;BME280;5078;42.544;22.966;2023-10-09T09:14:49;94639.47;;;22.52;27.49
10079;BME280;5078;42.544;22.966;2023-10-09T09:17:22;94638.94;;;22.13;28.48
10079;BME280;5078;42.544;22.966;2023-10-09T09:19:49;94636.84;;;22.15;28.70
10079;BME280;5078;42.544;22.966;2023-10-09T09:22:17;94639.59;;;21.97;28.37
10079;BME280;5078;42.544;22.966;2023-10-09T09:24:57;94644.41;;;21.40;28.23
10079;BME280;5078;42.544;22.966;2023-10-09T09:27:44;94643.56;;;21.14;28.58
10079;BME280;5078;42.544;22.966;2023-10-09T09:30:25;94627.06;;;20.79;28.56
10079;BME280;5078;42.544;22.966;2023-10-09T09:32:58;94634.06;;;20.61;29.46
10079;BME280;5078;42.544;22.966;2023-10-09T09:36:01;94630.22;;;21.01;28.02
10079;BME280;5078;42.544;22.966;2023-10-09T09:38:31;94630.25;;;21.19;28.33
10079;BME280;5078;42.544;22.966;2023-10-09T09:41:07;94628.13;;;21.46;28.09
10079;BME280;5078;42.544;22.966;2023-10-09T09:43:36;94602.78;;;21.66;27.88
10079;BME280;5078;42.544;22.966;2023-10-09T09:46:06;94627.50;;;21.81;28.05
10079;BME280;5078;42.544;22.966;2023-10-09T09:48:38;94619.19;;;21.83;27.57
10079;BME280;5078;42.544;22.966;2023-10-09T09:51:12;94616.16;;;22.09;26.66
10079;BME280;5078;42.544;22.966;2023-10-09T09:53:41;94633.75;;;20.44;27.92
10079;BME280;5078;42.544;22.966;2023-10-09T09:56:14;94631.38;;;21.30;27.70
10079;BME280;5078;42.544;22.966;2023-10-09T09:58:44;94621.88;;;21.27;27.75
10079;BME280;5078;42.544;22.966;2023-10-09T10:01:13;94609.41;;;21.08;27.42
10079;BME280;5078;42.544;22.966;2023-10-09T10:03:53;94592.66;;;21.24;27.46
10079;BME280;5078;42.544;22.966;2023-10-09T10:06:23;94590.59;;;21.45;27.09
10079;BME280;5078;42.544;22.966;2023-10-09T10:08:53;94590.31;;;21.28;26.63
10079;BME280;5078;42.544;22.966;2023-10-09T10:11:42;94588.44;;;21.10;26.51
10079;BME280;5078;42.544;22.966;2023-10-09T10:14:10;94579.53;;;22.13;27.36
10079;BME280;5078;42.544;22.966;2023-10-09T10:17:00;94568.25;;;22.58;26.31
10079;BME280;5078;42.544;22.966;2023-10-09T10:19:58;94561.22;;;22.57;26.03
10079;BME280;5078;42.544;22.966;2023-10-09T10:22:28;94547.19;;;22.25;25.18
10079;BME280;5078;42.544;22.966;2023-10-09T10:24:57;94549.94;;;22.60;25.12
10079;BME280;5078;42.544;22.966;2023-10-09T10:27:28;94538.78;;;22.57;24.82
10079;BME280;5078;42.544;22.966;2023-10-09T10:30:26;94538.19;;;21.52;25.35
10079;BME280;5078;42.544;22.966;2023-10-09T10:32:57;94522.81;;;21.16;25.92
10079;BME280;5078;42.544;22.966;2023-10-09T10:35:35;94531.06;;;21.88;26.17
10079;BME280;5078;42.544;22.966;2023-10-09T10:38:26;94533.56;;;22.32;25.41
10079;BME280;5078;42.544;22.966;2023-10-09T10:41:09;94527.72;;;22.16;26.08
10079;BME280;5078;42.544;22.966;2023-10-09T10:43:39;94521.81;;;22.38;25.47
10079;BME280;5078;42.544;22.966;2023-10-09T10:46:21;94525.63;;;23.19;24.78
10079;BME280;5078;42.544;22.966;2023-10-09T10:48:56;94520.34;;;23.53;24.58
10079;BME280;5078;42.544;22.966;2023-10-09T10:51:25;94511.19;;;23.54;24.18
10079;BME280;5078;42.544;22.966;2023-10-09T10:54:01;94505.88;;;23.19;23.92
10079;BME280;5078;42.544;22.966;2023-10-09T10:56:52;94501.03;;;22.74;24.68
10079;BME280;5078;42.544;22.966;2023-10-09T10:59:18;94505.38;;;22.39;24.82
10079;BME280;5078;42.544;22.966;2023-10-09T11:01:50;94507.56;;;21.89;25.49
10079;BME280;5078;42.544;22.966;2023-10-09T11:04:19;94506.13;;;22.16;24.78
10079;BME280;5078;42.544;22.966;2023-10-09T11:07:04;94500.81;;;22.40;23.69
10079;BME280;5078;42.544;22.966;2023-10-09T11:09:43;94497.38;;;22.33;23.47
10079;BME280;5078;42.544;22.966;2023-10-09T11:12:25;94488.13;;;21.98;23.60
10079;BME280;5078;42.544;22.966;2023-10-09T11:15:04;94472.84;;;22.34;24.18
10079;BME280;5078;42.544;22.966;2023-10-09T11:17:44;94487.28;;;22.64;23.18
10079;BME280;5078;42.544;22.966;2023-10-09T11:20:12;94481.66;;;22.42;23.24
10079;BME280;5078;42.544;22.966;2023-10-09T11:22:57;94471.66;;;21.88;23.78
10079;BME280;5078;42.544;22.966;2023-10-09T11:25:42;94469.75;;;22.19;23.97
10079;BME280;5078;42.544;22.966;2023-10-09T11:28:19;94451.56;;;22.26;23.40
10079;BME280;5078;42.544;22.966;2023-10-09T11:31:08;94447.47;;;22.47;21.89
10079;BME280;5078;42.544;22.966;2023-10-09T11:33:46;94412.41;;;22.76;21.51
10079;BME280;5078;42.544;22.966;2023-10-09T11:36:14;94441.41;;;22.10;22.03
10079;BME280;5078;42.544;22.966;2023-10-09T11:38:40;94441.16;;;22.11;22.97
10079;BME280;5078;42.544;22.966;2023-10-09T11:41:14;94445.03;;;22.04;22.37
10079;BME280;5078;42.544;22.966;2023-10-09T11:43:51;94441.78;;;22.02;23.05
10079;BME280;5078;42.544;22.966;2023-10-09T11:46:19;94423.13;;;22.35;22.96
10079;BME280;5078;42.544;22.966;2023-10-09T11:49:14;94430.50;;;22.16;21.80
10079;BME280;5078;42.544;22.966;2023-10-09T11:52:06;94426.44;;;22.26;21.15
10079;BME280;5078;42.544;22.966;2023-10-09T11:54:50;94419.03;;;22.45;21.59
10079;BME280;5078;42.544;22.966;2023-10-09T11:57:17;94419.25;;;22.43;21.49
10079;BME280;5078;42.544;22.966;2023-10-09T11:59:45;94415.84;;;22.36;21.28
10079;BME280;5078;42.544;22.966;2023-10-09T12:02:17;94413.75;;;22.38;21.73
10079;BME280;5078;42.544;22.966;2023-10-09T12:04:44;94409.75;;;22.52;22.13
10079;BME280;5078;42.544;22.966;2023-10-09T12:07:10;94401.00;;;22.86;22.50
10079;BME280;5078;42.544;22.966;2023-10-09T12:09:37;94395.47;;;22.80;21.95
10079;BME280;5078;42.544;22.966;2023-10-09T12:12:06;94392.59;;;22.35;22.45
10079;BME280;5078;42.544;22.966;2023-10-09T12:14:33;94379.75;;;22.66;22.34
10079;BME280;5078;42.544;22.966;2023-10-09T12:17:04;94383.38;;;22.71;21.68
10079;BME280;5078;42.544;22.966;2023-10-09T12:19:32;94379.53;;;22.55;22.07
10079;BME280;5078;42.544;22.966;2023-10-09T12:22:00;94376.38;;;22.35;21.63
10079;BME280;5078;42.544;22.966;2023-10-09T12:24:29;94374.72;;;22.57;21.28
10079;BME280;5078;42.544;22.966;2023-10-09T12:26:56;94369.31;;;22.69;21.26
10079;BME280;5078;42.544;22.966;2023-10-09T12:29:22;94370.84;;;21.94;21.86
10079;BME280;5078;42.544;22.966;2023-10-09T12:31:50;94372.59;;;22.12;22.29
10079;BME280;5078;42.544;22.966;2023-10-09T12:34:24;94365.81;;;22.45;22.29
10079;BME280;5078;42.544;22.966;2023-10-09T12:36:53;94361.09;;;22.29;21.53
10079;BME280;5078;42.544;22.966;2023-10-09T12:39:20;94361.91;;;21.94;21.48
10079;BME280;5078;42.544;22.966;2023-10-09T12:41:47;94355.09;;;21.91;21.91
10079;BME280;5078;42.544;22.966;2023-10-09T12:44:19;94349.63;;;22.22;21.97
10079;BME280;5078;42.544;22.966;2023-10-09T12:46:46;94327.16;;;21.62;22.49
10079;BME280;5078;42.544;22.966;2023-10-09T12:49:18;94344.66;;;22.07;22.50
10079;BME280;5078;42.544;22.966;2023-10-09T12:51:52;94343.72;;;22.36;22.37
10079;BME280;5078;42.544;22.966;2023-10-09T12:54:19;94335.75;;;22.42;22.14
10079;BME280;5078;42.544;22.966;2023-10-09T12:56:52;94336.31;;;22.44;22.59
10079;BME280;5078;42.544;22.966;2023-10-09T12:59:19;94336.28;;;22.55;22.23
10079;BME280;5078;42.544;22.966;2023-10-09T13:01:47;94328.41;;;22.66;22.08
10079;BME280;5078;42.544;22.966;2023-10-09T13:04:18;94322.16;;;22.77;21.77
10079;BME280;5078;42.544;22.966;2023-10-09T13:06:48;94327.03;;;22.92;21.86
10079;BME280;5078;42.544;22.966;2023-10-09T13:09:19;94324.75;;;23.12;22.13
10079;BME280;5078;42.544;22.966;2023-10-09T13:11:50;94323.25;;;23.04;21.18
10079;BME280;5078;42.544;22.966;2023-10-09T13:14:17;94325.88;;;23.16;21.72
10079;BME280;5078;42.544;22.966;2023-10-09T13:16:47;94313.38;;;22.98;21.68
10079;BME280;5078;42.544;22.966;2023-10-09T13:19:16;94314.06;;;22.94;22.20
10079;BME280;5078;42.544;22.966;2023-10-09T13:21:43;94308.91;;;22.92;22.04
10079;BME280;5078;42.544;22.966;2023-10-09T13:24:10;94305.50;;;22.97;21.90
10079;BME280;5078;42.544;22.966;2023-10-09T13:26:42;94313.53;;;22.80;22.56
10079;BME280;5078;42.544;22.966;2023-10-09T13:29:11;94261.59;;;22.49;21.91
10079;BME280;5078;42.544;22.966;2023-10-09T13:31:38;94294.56;;;22.51;22.37
10079;BME280;5078;42.544;22.966;2023-10-09T13:34:12;94297.03;;;22.65;22.91
10079;BME280;5078;42.544;22.966;2023-10-09T13:36:40;94289.41;;;22.90;22.78
10079;BME280;5078;42.544;22.966;2023-10-09T13:39:15;94288.81;;;23.00;22.45